sensor_id;sensor_type;location;lat;lon;timestamp;P1;durP1;ratioP1;P2;durP2;ratioP2
14858;SDS011;7521;51.700;6.874;2023-07-13T00:00:06;7.83;;;3.27;;
14858;SDS011;7521;51.700;6.874;2023-07-13T00:03:14;6.73;;;3.57;;
14858;SDS011;7521;51.700;6.874;2023-07-13T00:06:20;9.60;;;3.13;;
14858;SDS011;7521;51.700;6.874;2023-07-13T00:09:25;8.87;;;3.30;;
14858;SDS011;7521;51.700;6.874;2023-07-13T00:12:33;6.87;;;4.07;;
14858;SDS011;7521;51.700;6.874;2023-07-13T00:15:38;10.50;;;3.80;;
14858;SDS011;7521;51.700;6.874;2023-07-13T00:18:44;5.45;;;2.83;;
14858;SDS011;7521;51.700;6.874;2023-07-13T00:21:49;4.80;;;2.37;;
14858;SDS011;7521;51.700;6.874;2023-07-13T00:24:54;8.35;;;2.80;;
14858;SDS011;7521;51.700;6.874;2023-07-13T00:28:02;8.57;;;2.53;;
14858;SDS011;7521;51.700;6.874;2023-07-13T00:31:09;5.47;;;2.07;;
14858;SDS011;7521;51.700;6.874;2023-07-13T00:34:14;4.47;;;2.20;;
14858;SDS011;7521;51.700;6.874;2023-07-13T00:37:19;6.53;;;2.17;;
14858;SDS011;7521;51.700;6.874;2023-07-13T00:40:24;4.53;;;2.28;;
14858;SDS011;7521;51.700;6.874;2023-07-13T00:43:29;7.00;;;2.15;;
14858;SDS011;7521;51.700;6.874;2023-07-13T00:46:35;4.63;;;2.00;;
14858;SDS011;7521;51.700;6.874;2023-07-13T00:49:40;7.27;;;2.10;;
14858;SDS011;7521;51.700;6.874;2023-07-13T00:52:46;7.47;;;1.88;;
14858;SDS011;7521;51.700;6.874;2023-07-13T00:55:53;4.70;;;1.70;;
14858;SDS011;7521;51.700;6.874;2023-07-13T00:58:59;5.90;;;2.10;;
14858;SDS011;7521;51.700;6.874;2023-07-13T01:02:04;5.03;;;1.83;;
14858;SDS011;7521;51.700;6.874;2023-07-13T01:05:10;8.10;;;1.97;;
14858;SDS011;7521;51.700;6.874;2023-07-13T01:08:16;6.47;;;2.10;;
14858;SDS011;7521;51.700;6.874;2023-07-13T01:11:21;5.88;;;2.20;;
14858;SDS011;7521;51.700;6.874;2023-07-13T01:14:27;4.57;;;2.47;;
14858;SDS011;7521;51.700;6.874;2023-07-13T01:17:33;5.00;;;1.97;;
14858;SDS011;7521;51.700;6.874;2023-07-13T01:20:39;6.57;;;2.20;;
14858;SDS011;7521;51.700;6.874;2023-07-13T01:23:44;6.93;;;1.80;;
14858;SDS011;7521;51.700;6.874;2023-07-13T01:26:49;9.17;;;2.17;;
14858;SDS011;7521;51.700;6.874;2023-07-13T01:29:55;5.80;;;2.25;;
14858;SDS011;7521;51.700;6.874;2023-07-13T01:33:09;5.67;;;2.43;;
14858;SDS011;7521;51.700;6.874;2023-07-13T01:36:14;5.70;;;2.00;;
14858;SDS011;7521;51.700;6.874;2023-07-13T01:39:22;5.70;;;1.80;;
14858;SDS011;7521;51.700;6.874;2023-07-13T01:42:27;5.83;;;2.30;;
14858;SDS011;7521;51.700;6.874;2023-07-13T01:45:33;4.83;;;1.70;;
14858;SDS011;7521;51.700;6.874;2023-07-13T01:48:38;7.97;;;1.70;;
14858;SDS011;7521;51.700;6.874;2023-07-13T01:51:43;8.05;;;2.30;;
14858;SDS011;7521;51.700;6.874;2023-07-13T01:54:48;9.73;;;2.28;;
14858;SDS011;7521;51.700;6.874;2023-07-13T01:57:53;7.13;;;3.47;;
14858;SDS011;7521;51.700;6.874;2023-07-13T02:00:58;7.10;;;3.55;;
14858;SDS011;7521;51.700;6.874;2023-07-13T02:04:04;6.75;;;3.38;;
14858;SDS011;7521;51.700;6.874;2023-07-13T02:07:09;9.10;;;3.90;;
14858;SDS011;7521;51.700;6.874;2023-07-13T02:10:14;5.87;;;3.43;;
14858;SDS011;7521;51.700;6.874;2023-07-13T02:13:19;5.47;;;2.63;;
14858;SDS011;7521;51.700;6.874;2023-07-13T02:16:24;5.82;;;2.53;;
14858;SDS011;7521;51.700;6.874;2023-07-13T02:19:30;7.18;;;2.20;;
14858;SDS011;7521;51.700;6.874;2023-07-13T02:22:35;4.18;;;1.52;;
14858;SDS011;7521;51.700;6.874;2023-07-13T02:25:40;4.17;;;1.67;;
14858;SDS011;7521;51.700;6.874;2023-07-13T02:28:46;4.07;;;1.40;;
14858;SDS011;7521;51.700;6.874;2023-07-13T02:31:51;5.10;;;1.45;;
14858;SDS011;7521;51.700;6.874;2023-07-13T02:34:56;4.30;;;1.63;;
14858;SDS011;7521;51.700;6.874;2023-07-13T02:38:01;7.82;;;2.05;;
14858;SDS011;7521;51.700;6.874;2023-07-13T02:41:07;6.70;;;1.67;;
14858;SDS011;7521;51.700;6.874;2023-07-13T02:44:14;8.93;;;2.37;;
14858;SDS011;7521;51.700;6.874;2023-07-13T02:47:19;5.37;;;1.73;;
14858;SDS011;7521;51.700;6.874;2023-07-13T02:50:24;8.87;;;1.70;;
14858;SDS011;7521;51.700;6.874;2023-07-13T02:53:29;5.88;;;1.80;;
14858;SDS011;7521;51.700;6.874;2023-07-13T02:56:35;7.32;;;1.92;;
14858;SDS011;7521;51.700;6.874;2023-07-13T02:59:40;6.47;;;2.37;;
14858;SDS011;7521;51.700;6.874;2023-07-13T03:02:45;5.33;;;2.00;;
14858;SDS011;7521;51.700;6.874;2023-07-13T03:05:57;8.47;;;2.13;;
14858;SDS011;7521;51.700;6.874;2023-07-13T03:09:02;8.33;;;2.47;;
14858;SDS011;7521;51.700;6.874;2023-07-13T03:12:08;5.80;;;2.60;;
14858;SDS011;7521;51.700;6.874;2023-07-13T03:15:14;7.07;;;2.55;;
14858;SDS011;7521;51.700;6.874;2023-07-13T03:18:19;6.83;;;1.77;;
14858;SDS011;7521;51.700;6.874;2023-07-13T03:21:24;4.63;;;1.90;;
14858;SDS011;7521;51.700;6.874;2023-07-13T03:24:29;3.88;;;1.45;;
14858;SDS011;7521;51.700;6.874;2023-07-13T03:27:34;4.53;;;2.00;;
14858;SDS011;7521;51.700;6.874;2023-07-13T03:30:40;4.55;;;1.75;;
14858;SDS011;7521;51.700;6.874;2023-07-13T03:33:45;7.13;;;1.80;;
14858;SDS011;7521;51.700;6.874;2023-07-13T03:36:50;5.27;;;1.60;;
14858;SDS011;7521;51.700;6.874;2023-07-13T03:39:55;8.60;;;1.93;;
14858;SDS011;7521;51.700;6.874;2023-07-13T03:43:00;8.27;;;2.00;;
14858;SDS011;7521;51.700;6.874;2023-07-13T03:46:07;5.27;;;1.60;;
14858;SDS011;7521;51.700;6.874;2023-07-13T03:49:12;7.82;;;1.63;;
14858;SDS011;7521;51.700;6.874;2023-07-13T03:52:17;6.83;;;2.13;;
14858;SDS011;7521;51.700;6.874;2023-07-13T03:55:23;5.53;;;1.90;;
14858;SDS011;7521;51.700;6.874;2023-07-13T03:58:32;6.43;;;2.08;;
14858;SDS011;7521;51.700;6.874;2023-07-13T04:01:37;6.83;;;2.30;;
14858;SDS011;7521;51.700;6.874;2023-07-13T04:04:43;10.70;;;2.20;;
14858;SDS011;7521;51.700;6.874;2023-07-13T04:07:48;9.20;;;1.77;;
14858;SDS011;7521;51.700;6.874;2023-07-13T04:10:54;5.23;;;1.83;;
14858;SDS011;7521;51.700;6.874;2023-07-13T04:13:59;7.43;;;2.33;;
14858;SDS011;7521;51.700;6.874;2023-07-13T04:17:04;4.70;;;2.10;;
14858;SDS011;7521;51.700;6.874;2023-07-13T04:20:10;7.73;;;2.87;;
14858;SDS011;7521;51.700;6.874;2023-07-13T04:23:15;6.83;;;3.00;;
14858;SDS011;7521;51.700;6.874;2023-07-13T04:26:21;5.00;;;2.97;;
14858;SDS011;7521;51.700;6.874;2023-07-13T04:29:27;5.10;;;2.63;;
14858;SDS011;7521;51.700;6.874;2023-07-13T04:32:32;6.90;;;2.65;;
14858;SDS011;7521;51.700;6.874;2023-07-13T04:35:37;5.95;;;2.20;;
14858;SDS011;7521;51.700;6.874;2023-07-13T04:38:43;6.90;;;2.45;;
14858;SDS011;7521;51.700;6.874;2023-07-13T04:41:48;5.07;;;1.80;;
14858;SDS011;7521;51.700;6.874;2023-07-13T04:44:53;5.67;;;2.13;;
14858;SDS011;7521;51.700;6.874;2023-07-13T04:47:59;11.20;;;2.28;;
14858;SDS011;7521;51.700;6.874;2023-07-13T04:51:04;7.05;;;1.88;;
14858;SDS011;7521;51.700;6.874;2023-07-13T04:54:09;5.53;;;1.83;;
14858;SDS011;7521;51.700;6.874;2023-07-13T04:57:14;6.88;;;1.98;;
14858;SDS011;7521;51.700;6.874;2023-07-13T05:00:19;7.00;;;2.00;;
14858;SDS011;7521;51.700;6.874;2023-07-13T05:03:24;8.70;;;2.03;;
14858;SDS011;7521;51.700;6.874;2023-07-13T05:06:30;5.70;;;1.98;;
14858;SDS011;7521;51.700;6.874;2023-07-13T05:09:36;5.63;;;2.10;;
14858;SDS011;7521;51.700;6.874;2023-07-13T05:12:42;7.03;;;2.37;;
14858;SDS011;7521;51.700;6.874;2023-07-13T05:15:52;10.85;;;2.75;;
14858;SDS011;7521;51.700;6.874;2023-07-13T05:19:00;8.53;;;2.30;;
14858;SDS011;7521;51.700;6.874;2023-07-13T05:22:05;6.85;;;1.90;;
14858;SDS011;7521;51.700;6.874;2023-07-13T05:25:10;7.13;;;2.13;;
14858;SDS011;7521;51.700;6.874;2023-07-13T05:28:15;6.25;;;2.25;;
14858;SDS011;7521;51.700;6.874;2023-07-13T05:31:20;8.75;;;2.42;;
14858;SDS011;7521;51.700;6.874;2023-07-13T05:34:26;6.00;;;2.57;;
14858;SDS011;7521;51.700;6.874;2023-07-13T05:37:31;8.63;;;2.77;;
14858;SDS011;7521;51.700;6.874;2023-07-13T05:40:37;10.13;;;3.00;;
14858;SDS011;7521;51.700;6.874;2023-07-13T05:43:42;8.33;;;2.80;;
14858;SDS011;7521;51.700;6.874;2023-07-13T05:46:47;11.63;;;3.00;;
14858;SDS011;7521;51.700;6.874;2023-07-13T05:49:52;7.60;;;3.13;;
14858;SDS011;7521;51.700;6.874;2023-07-13T05:52:57;8.85;;;2.90;;
14858;SDS011;7521;51.700;6.874;2023-07-13T05:56:03;8.80;;;3.00;;
14858;SDS011;7521;51.700;6.874;2023-07-13T05:59:08;13.73;;;3.57;;
14858;SDS011;7521;51.700;6.874;2023-07-13T06:02:13;7.93;;;2.50;;
14858;SDS011;7521;51.700;6.874;2023-07-13T06:05:18;10.20;;;3.28;;
14858;SDS011;7521;51.700;6.874;2023-07-13T06:08:23;11.32;;;3.13;;
14858;SDS011;7521;51.700;6.874;2023-07-13T06:11:29;10.48;;;4.18;;
14858;SDS011;7521;51.700;6.874;2023-07-13T06:14:35;11.20;;;3.17;;
14858;SDS011;7521;51.700;6.874;2023-07-13T06:17:40;13.23;;;3.67;;
14858;SDS011;7521;51.700;6.874;2023-07-13T06:20:45;16.20;;;4.20;;
14858;SDS011;7521;51.700;6.874;2023-07-13T06:23:50;12.50;;;4.45;;
14858;SDS011;7521;51.700;6.874;2023-07-13T06:26:56;11.67;;;4.00;;
14858;SDS011;7521;51.700;6.874;2023-07-13T06:30:01;15.07;;;4.80;;
14858;SDS011;7521;51.700;6.874;2023-07-13T06:33:07;16.13;;;4.83;;
14858;SDS011;7521;51.700;6.874;2023-07-13T06:36:12;15.30;;;4.83;;
14858;SDS011;7521;51.700;6.874;2023-07-13T06:39:17;16.05;;;5.22;;
14858;SDS011;7521;51.700;6.874;2023-07-13T06:42:22;17.13;;;5.33;;
14858;SDS011;7521;51.700;6.874;2023-07-13T06:45:27;14.43;;;6.00;;
14858;SDS011;7521;51.700;6.874;2023-07-13T06:48:33;13.88;;;4.47;;
14858;SDS011;7521;51.700;6.874;2023-07-13T06:51:38;12.90;;;5.40;;
14858;SDS011;7521;51.700;6.874;2023-07-13T06:54:43;16.02;;;6.78;;
14858;SDS011;7521;51.700;6.874;2023-07-13T06:57:48;14.20;;;5.80;;
14858;SDS011;7521;51.700;6.874;2023-07-13T07:00:53;11.30;;;5.33;;
14858;SDS011;7521;51.700;6.874;2023-07-13T07:03:59;19.77;;;6.20;;
14858;SDS011;7521;51.700;6.874;2023-07-13T07:07:04;20.20;;;6.03;;
14858;SDS011;7521;51.700;6.874;2023-07-13T07:10:09;19.77;;;6.15;;
14858;SDS011;7521;51.700;6.874;2023-07-13T07:13:14;16.30;;;6.80;;
14858;SDS011;7521;51.700;6.874;2023-07-13T07:16:20;14.73;;;7.18;;
14858;SDS011;7521;51.700;6.874;2023-07-13T07:19:25;20.80;;;6.53;;
14858;SDS011;7521;51.700;6.874;2023-07-13T07:22:31;16.07;;;6.37;;
14858;SDS011;7521;51.700;6.874;2023-07-13T07:25:36;16.83;;;6.87;;
14858;SDS011;7521;51.700;6.874;2023-07-13T07:28:46;20.13;;;6.53;;
14858;SDS011;7521;51.700;6.874;2023-07-13T07:31:52;15.90;;;6.28;;
14858;SDS011;7521;51.700;6.874;2023-07-13T07:34:57;12.13;;;5.50;;
14858;SDS011;7521;51.700;6.874;2023-07-13T07:38:02;13.40;;;6.07;;
14858;SDS011;7521;51.700;6.874;2023-07-13T07:41:08;15.03;;;6.30;;
14858;SDS011;7521;51.700;6.874;2023-07-13T07:44:13;18.63;;;5.40;;
14858;SDS011;7521;51.700;6.874;2023-07-13T07:47:18;13.98;;;4.93;;
14858;SDS011;7521;51.700;6.874;2023-07-13T07:50:23;12.68;;;4.93;;
14858;SDS011;7521;51.700;6.874;2023-07-13T07:53:28;12.88;;;4.57;;
14858;SDS011;7521;51.700;6.874;2023-07-13T07:56:33;11.07;;;4.73;;
14858;SDS011;7521;51.700;6.874;2023-07-13T07:59:38;16.50;;;5.17;;
14858;SDS011;7521;51.700;6.874;2023-07-13T08:02:45;12.77;;;4.03;;
14858;SDS011;7521;51.700;6.874;2023-07-13T08:05:52;9.27;;;3.97;;
14858;SDS011;7521;51.700;6.874;2023-07-13T08:08:57;11.57;;;4.27;;
14858;SDS011;7521;51.700;6.874;2023-07-13T08:12:03;8.97;;;3.63;;
14858;SDS011;7521;51.700;6.874;2023-07-13T08:15:12;11.60;;;3.70;;
14858;SDS011;7521;51.700;6.874;2023-07-13T08:18:17;12.63;;;3.70;;
14858;SDS011;7521;51.700;6.874;2023-07-13T08:21:22;12.23;;;3.57;;
14858;SDS011;7521;51.700;6.874;2023-07-13T08:24:27;9.20;;;3.77;;
14858;SDS011;7521;51.700;6.874;2023-07-13T08:27:33;9.15;;;3.58;;
14858;SDS011;7521;51.700;6.874;2023-07-13T08:30:38;10.37;;;3.50;;
14858;SDS011;7521;51.700;6.874;2023-07-13T08:33:43;10.47;;;4.17;;
14858;SDS011;7521;51.700;6.874;2023-07-13T08:36:49;8.33;;;3.73;;
14858;SDS011;7521;51.700;6.874;2023-07-13T08:39:54;9.33;;;4.27;;
14858;SDS011;7521;51.700;6.874;2023-07-13T08:42:59;11.30;;;4.03;;
14858;SDS011;7521;51.700;6.874;2023-07-13T08:46:13;10.53;;;3.63;;
14858;SDS011;7521;51.700;6.874;2023-07-13T08:49:20;10.33;;;3.53;;
14858;SDS011;7521;51.700;6.874;2023-07-13T08:52:38;12.67;;;3.80;;
14858;SDS011;7521;51.700;6.874;2023-07-13T08:55:43;11.40;;;3.63;;
14858;SDS011;7521;51.700;6.874;2023-07-13T08:58:51;11.53;;;3.80;;
14858;SDS011;7521;51.700;6.874;2023-07-13T09:05:18;11.60;;;3.97;;
14858;SDS011;7521;51.700;6.874;2023-07-13T09:08:38;13.27;;;4.10;;
14858;SDS011;7521;51.700;6.874;2023-07-13T09:11:49;8.73;;;3.27;;
14858;SDS011;7521;51.700;6.874;2023-07-13T09:14:55;10.23;;;3.70;;
14858;SDS011;7521;51.700;6.874;2023-07-13T09:21:32;11.87;;;3.27;;
14858;SDS011;7521;51.700;6.874;2023-07-13T09:24:41;8.83;;;3.60;;
14858;SDS011;7521;51.700;6.874;2023-07-13T09:27:53;9.10;;;3.10;;
14858;SDS011;7521;51.700;6.874;2023-07-13T09:31:07;8.83;;;3.33;;
14858;SDS011;7521;51.700;6.874;2023-07-13T09:34:17;7.43;;;3.10;;
14858;SDS011;7521;51.700;6.874;2023-07-13T09:37:23;10.23;;;3.07;;
14858;SDS011;7521;51.700;6.874;2023-07-13T09:44:10;9.80;;;3.53;;
14858;SDS011;7521;51.700;6.874;2023-07-13T09:47:24;6.80;;;2.97;;
14858;SDS011;7521;51.700;6.874;2023-07-13T09:50:31;7.67;;;3.17;;
14858;SDS011;7521;51.700;6.874;2023-07-13T09:53:36;8.57;;;3.73;;
14858;SDS011;7521;51.700;6.874;2023-07-13T09:56:42;9.10;;;2.93;;
14858;SDS011;7521;51.700;6.874;2023-07-13T09:59:49;11.57;;;3.30;;
14858;SDS011;7521;51.700;6.874;2023-07-13T10:02:58;7.60;;;3.40;;
14858;SDS011;7521;51.700;6.874;2023-07-13T10:06:17;9.37;;;2.80;;
14858;SDS011;7521;51.700;6.874;2023-07-13T10:09:22;8.23;;;2.77;;
14858;SDS011;7521;51.700;6.874;2023-07-13T10:12:28;8.77;;;3.43;;
14858;SDS011;7521;51.700;6.874;2023-07-13T10:15:34;7.40;;;3.00;;
14858;SDS011;7521;51.700;6.874;2023-07-13T10:21:53;5.13;;;2.83;;
14858;SDS011;7521;51.700;6.874;2023-07-13T10:24:59;5.53;;;2.47;;
14858;SDS011;7521;51.700;6.874;2023-07-13T10:28:11;9.27;;;3.53;;
14858;SDS011;7521;51.700;6.874;2023-07-13T10:31:18;6.23;;;2.83;;
14858;SDS011;7521;51.700;6.874;2023-07-13T10:34:24;10.77;;;2.83;;
14858;SDS011;7521;51.700;6.874;2023-07-13T10:37:31;5.67;;;2.50;;
14858;SDS011;7521;51.700;6.874;2023-07-13T10:40:43;9.07;;;3.07;;
14858;SDS011;7521;51.700;6.874;2023-07-13T10:43:50;7.97;;;3.37;;
14858;SDS011;7521;51.700;6.874;2023-07-13T10:47:00;8.60;;;3.33;;
14858;SDS011;7521;51.700;6.874;2023-07-13T10:50:08;7.23;;;2.80;;
14858;SDS011;7521;51.700;6.874;2023-07-13T10:53:30;5.13;;;2.83;;
14858;SDS011;7521;51.700;6.874;2023-07-13T10:56:36;6.90;;;2.70;;
14858;SDS011;7521;51.700;6.874;2023-07-13T10:59:41;9.30;;;3.30;;
14858;SDS011;7521;51.700;6.874;2023-07-13T11:02:57;6.53;;;2.53;;
14858;SDS011;7521;51.700;6.874;2023-07-13T11:15:51;7.03;;;2.20;;
14858;SDS011;7521;51.700;6.874;2023-07-13T11:28:25;6.93;;;2.37;;
14858;SDS011;7521;51.700;6.874;2023-07-13T11:31:30;8.17;;;2.67;;
14858;SDS011;7521;51.700;6.874;2023-07-13T11:34:38;7.13;;;2.60;;
14858;SDS011;7521;51.700;6.874;2023-07-13T11:37:44;8.73;;;2.07;;
14858;SDS011;7521;51.700;6.874;2023-07-13T11:40:51;6.23;;;2.57;;
14858;SDS011;7521;51.700;6.874;2023-07-13T11:44:05;5.57;;;2.20;;
14858;SDS011;7521;51.700;6.874;2023-07-13T11:47:11;6.47;;;2.27;;
14858;SDS011;7521;51.700;6.874;2023-07-13T11:50:20;3.90;;;1.97;;
14858;SDS011;7521;51.700;6.874;2023-07-13T11:53:27;4.70;;;2.03;;
14858;SDS011;7521;51.700;6.874;2023-07-13T11:56:36;6.17;;;2.53;;
14858;SDS011;7521;51.700;6.874;2023-07-13T11:59:41;9.27;;;2.20;;
14858;SDS011;7521;51.700;6.874;2023-07-13T12:02:47;5.63;;;2.17;;
14858;SDS011;7521;51.700;6.874;2023-07-13T12:06:04;5.17;;;2.20;;
14858;SDS011;7521;51.700;6.874;2023-07-13T12:09:13;4.97;;;2.27;;
14858;SDS011;7521;51.700;6.874;2023-07-13T12:12:21;8.10;;;2.30;;
14858;SDS011;7521;51.700;6.874;2023-07-13T12:15:29;4.90;;;1.80;;
14858;SDS011;7521;51.700;6.874;2023-07-13T12:18:35;4.40;;;2.00;;
14858;SDS011;7521;51.700;6.874;2023-07-13T12:21:41;5.60;;;1.83;;
14858;SDS011;7521;51.700;6.874;2023-07-13T12:24:46;5.53;;;2.00;;
14858;SDS011;7521;51.700;6.874;2023-07-13T12:27:52;5.70;;;2.00;;
14858;SDS011;7521;51.700;6.874;2023-07-13T12:30:58;8.50;;;1.97;;
14858;SDS011;7521;51.700;6.874;2023-07-13T12:34:17;4.67;;;2.37;;
14858;SDS011;7521;51.700;6.874;2023-07-13T12:37:23;6.20;;;3.13;;
14858;SDS011;7521;51.700;6.874;2023-07-13T12:40:33;7.17;;;4.37;;
14858;SDS011;7521;51.700;6.874;2023-07-13T12:43:39;9.30;;;4.10;;
14858;SDS011;7521;51.700;6.874;2023-07-13T12:46:52;9.93;;;5.57;;
14858;SDS011;7521;51.700;6.874;2023-07-13T12:49:58;9.83;;;5.80;;
14858;SDS011;7521;51.700;6.874;2023-07-13T12:53:05;8.70;;;5.30;;
14858;SDS011;7521;51.700;6.874;2023-07-13T12:56:15;9.07;;;5.80;;
14858;SDS011;7521;51.700;6.874;2023-07-13T12:59:22;7.00;;;5.10;;
14858;SDS011;7521;51.700;6.874;2023-07-13T13:02:32;8.00;;;5.17;;
14858;SDS011;7521;51.700;6.874;2023-07-13T13:05:39;7.43;;;4.20;;
14858;SDS011;7521;51.700;6.874;2023-07-13T13:08:48;6.53;;;3.67;;
14858;SDS011;7521;51.700;6.874;2023-07-13T13:11:53;6.40;;;3.40;;
14858;SDS011;7521;51.700;6.874;2023-07-13T13:14:58;6.28;;;3.65;;
14858;SDS011;7521;51.700;6.874;2023-07-13T13:18:08;4.87;;;3.43;;
14858;SDS011;7521;51.700;6.874;2023-07-13T13:21:15;5.20;;;4.03;;
14858;SDS011;7521;51.700;6.874;2023-07-13T13:24:21;4.73;;;3.80;;
14858;SDS011;7521;51.700;6.874;2023-07-13T13:27:27;6.97;;;4.07;;
14858;SDS011;7521;51.700;6.874;2023-07-13T13:30:32;5.90;;;4.75;;
14858;SDS011;7521;51.700;6.874;2023-07-13T13:33:37;4.60;;;3.20;;
14858;SDS011;7521;51.700;6.874;2023-07-13T13:36:46;4.37;;;3.00;;
14858;SDS011;7521;51.700;6.874;2023-07-13T13:39:52;4.03;;;2.33;;
14858;SDS011;7521;51.700;6.874;2023-07-13T13:42:58;2.83;;;1.87;;
14858;SDS011;7521;51.700;6.874;2023-07-13T13:46:05;4.20;;;1.92;;
14858;SDS011;7521;51.700;6.874;2023-07-13T13:49:15;2.97;;;2.00;;
14858;SDS011;7521;51.700;6.874;2023-07-13T13:52:21;2.50;;;1.97;;
14858;SDS011;7521;51.700;6.874;2023-07-13T13:55:26;2.47;;;1.90;;
14858;SDS011;7521;51.700;6.874;2023-07-13T13:58:32;1.93;;;1.70;;
14858;SDS011;7521;51.700;6.874;2023-07-13T14:01:37;3.00;;;2.07;;
14858;SDS011;7521;51.700;6.874;2023-07-13T14:04:43;3.27;;;2.47;;
14858;SDS011;7521;51.700;6.874;2023-07-13T14:07:50;2.90;;;2.23;;
14858;SDS011;7521;51.700;6.874;2023-07-13T14:10:55;3.37;;;2.40;;
14858;SDS011;7521;51.700;6.874;2023-07-13T14:14:01;3.90;;;2.50;;
14858;SDS011;7521;51.700;6.874;2023-07-13T14:17:22;4.53;;;3.13;;
14858;SDS011;7521;51.700;6.874;2023-07-13T14:20:27;5.93;;;3.87;;
14858;SDS011;7521;51.700;6.874;2023-07-13T14:23:34;3.30;;;3.00;;
14858;SDS011;7521;51.700;6.874;2023-07-13T14:26:40;6.03;;;3.53;;
14858;SDS011;7521;51.700;6.874;2023-07-13T14:29:45;4.97;;;3.30;;
14858;SDS011;7521;51.700;6.874;2023-07-13T14:32:50;4.70;;;2.77;;
14858;SDS011;7521;51.700;6.874;2023-07-13T14:35:56;5.57;;;3.20;;
14858;SDS011;7521;51.700;6.874;2023-07-13T14:39:04;4.72;;;3.22;;
14858;SDS011;7521;51.700;6.874;2023-07-13T14:42:11;5.07;;;2.93;;
14858;SDS011;7521;51.700;6.874;2023-07-13T14:45:17;5.40;;;2.93;;
14858;SDS011;7521;51.700;6.874;2023-07-13T14:48:23;4.63;;;2.63;;
14858;SDS011;7521;51.700;6.874;2023-07-13T14:51:31;5.20;;;2.50;;
14858;SDS011;7521;51.700;6.874;2023-07-13T14:54:37;5.33;;;2.70;;
14858;SDS011;7521;51.700;6.874;2023-07-13T14:57:48;4.60;;;2.27;;
14858;SDS011;7521;51.700;6.874;2023-07-13T15:00:55;7.10;;;2.73;;
14858;SDS011;7521;51.700;6.874;2023-07-13T15:04:02;4.33;;;2.40;;
14858;SDS011;7521;51.700;6.874;2023-07-13T15:07:09;4.30;;;2.83;;
14858;SDS011;7521;51.700;6.874;2023-07-13T15:10:24;5.87;;;2.63;;
14858;SDS011;7521;51.700;6.874;2023-07-13T15:13:30;3.97;;;2.40;;
14858;SDS011;7521;51.700;6.874;2023-07-13T15:16:35;5.40;;;3.00;;
14858;SDS011;7521;51.700;6.874;2023-07-13T15:19:40;5.97;;;3.08;;
14858;SDS011;7521;51.700;6.874;2023-07-13T15:22:46;4.37;;;3.10;;
14858;SDS011;7521;51.700;6.874;2023-07-13T15:25:51;5.10;;;3.00;;
14858;SDS011;7521;51.700;6.874;2023-07-13T15:28:57;6.73;;;3.40;;
14858;SDS011;7521;51.700;6.874;2023-07-13T15:32:02;6.80;;;4.00;;
14858;SDS011;7521;51.700;6.874;2023-07-13T15:35:17;6.33;;;4.70;;
14858;SDS011;7521;51.700;6.874;2023-07-13T15:38:23;7.77;;;5.50;;
14858;SDS011;7521;51.700;6.874;2023-07-13T15:41:31;9.50;;;4.80;;
14858;SDS011;7521;51.700;6.874;2023-07-13T15:44:38;6.83;;;5.27;;
14858;SDS011;7521;51.700;6.874;2023-07-13T15:47:43;5.07;;;4.00;;
14858;SDS011;7521;51.700;6.874;2023-07-13T15:50:51;11.97;;;6.10;;
14858;SDS011;7521;51.700;6.874;2023-07-13T15:53:58;9.37;;;5.90;;
14858;SDS011;7521;51.700;6.874;2023-07-13T15:57:04;9.70;;;5.10;;
14858;SDS011;7521;51.700;6.874;2023-07-13T16:00:21;7.07;;;4.83;;
14858;SDS011;7521;51.700;6.874;2023-07-13T16:03:27;7.77;;;4.87;;
14858;SDS011;7521;51.700;6.874;2023-07-13T16:06:33;8.67;;;5.30;;
14858;SDS011;7521;51.700;6.874;2023-07-13T16:09:39;8.53;;;5.10;;
14858;SDS011;7521;51.700;6.874;2023-07-13T16:12:45;8.27;;;5.27;;
14858;SDS011;7521;51.700;6.874;2023-07-13T16:15:52;7.83;;;4.60;;
14858;SDS011;7521;51.700;6.874;2023-07-13T16:18:59;6.93;;;4.30;;
14858;SDS011;7521;51.700;6.874;2023-07-13T16:22:04;6.70;;;4.47;;
14858;SDS011;7521;51.700;6.874;2023-07-13T16:28:18;7.80;;;5.60;;
14858;SDS011;7521;51.700;6.874;2023-07-13T16:31:23;6.67;;;4.50;;
14858;SDS011;7521;51.700;6.874;2023-07-13T16:34:31;8.50;;;5.40;;
14858;SDS011;7521;51.700;6.874;2023-07-13T16:37:37;10.20;;;5.83;;
14858;SDS011;7521;51.700;6.874;2023-07-13T16:40:43;6.90;;;4.53;;
14858;SDS011;7521;51.700;6.874;2023-07-13T16:43:48;7.87;;;4.20;;
14858;SDS011;7521;51.700;6.874;2023-07-13T16:46:54;9.57;;;4.72;;
14858;SDS011;7521;51.700;6.874;2023-07-13T16:50:00;5.00;;;3.27;;
14858;SDS011;7521;51.700;6.874;2023-07-13T16:53:10;9.20;;;3.83;;
14858;SDS011;7521;51.700;6.874;2023-07-13T16:56:20;5.03;;;2.90;;
14858;SDS011;7521;51.700;6.874;2023-07-13T16:59:29;6.38;;;2.67;;
14858;SDS011;7521;51.700;6.874;2023-07-13T17:02:35;5.90;;;2.77;;
14858;SDS011;7521;51.700;6.874;2023-07-13T17:05:42;5.37;;;3.23;;
14858;SDS011;7521;51.700;6.874;2023-07-13T17:08:52;7.33;;;2.93;;
14858;SDS011;7521;51.700;6.874;2023-07-13T17:11:58;4.53;;;2.50;;
14858;SDS011;7521;51.700;6.874;2023-07-13T17:15:04;6.90;;;2.70;;
14858;SDS011;7521;51.700;6.874;2023-07-13T17:18:14;4.37;;;2.53;;
14858;SDS011;7521;51.700;6.874;2023-07-13T17:21:19;4.90;;;2.87;;
14858;SDS011;7521;51.700;6.874;2023-07-13T17:24:26;6.03;;;2.80;;
14858;SDS011;7521;51.700;6.874;2023-07-13T17:27:31;3.93;;;2.50;;
14858;SDS011;7521;51.700;6.874;2023-07-13T17:30:40;4.93;;;2.57;;
14858;SDS011;7521;51.700;6.874;2023-07-13T17:33:47;5.53;;;2.10;;
14858;SDS011;7521;51.700;6.874;2023-07-13T17:36:52;3.57;;;2.40;;
14858;SDS011;7521;51.700;6.874;2023-07-13T17:39:57;5.83;;;3.13;;
14858;SDS011;7521;51.700;6.874;2023-07-13T17:43:02;6.70;;;2.70;;
14858;SDS011;7521;51.700;6.874;2023-07-13T17:46:11;5.63;;;2.40;;
14858;SDS011;7521;51.700;6.874;2023-07-13T17:49:18;5.77;;;2.40;;
14858;SDS011;7521;51.700;6.874;2023-07-13T17:52:25;5.47;;;2.40;;
14858;SDS011;7521;51.700;6.874;2023-07-13T17:55:33;5.20;;;2.30;;
14858;SDS011;7521;51.700;6.874;2023-07-13T17:58:39;4.23;;;1.90;;
14858;SDS011;7521;51.700;6.874;2023-07-13T18:01:45;3.23;;;1.90;;
14858;SDS011;7521;51.700;6.874;2023-07-13T18:04:50;4.13;;;1.43;;
14858;SDS011;7521;51.700;6.874;2023-07-13T18:07:55;3.47;;;1.67;;
14858;SDS011;7521;51.700;6.874;2023-07-13T18:11:01;4.63;;;1.77;;
14858;SDS011;7521;51.700;6.874;2023-07-13T18:14:07;2.10;;;1.33;;
14858;SDS011;7521;51.700;6.874;2023-07-13T18:17:21;4.87;;;1.30;;
14858;SDS011;7521;51.700;6.874;2023-07-13T18:20:26;4.33;;;1.70;;
14858;SDS011;7521;51.700;6.874;2023-07-13T18:23:31;9.23;;;1.57;;
14858;SDS011;7521;51.700;6.874;2023-07-13T18:26:38;3.03;;;1.67;;
14858;SDS011;7521;51.700;6.874;2023-07-13T18:29:45;3.87;;;2.07;;
14858;SDS011;7521;51.700;6.874;2023-07-13T18:32:51;2.13;;;1.53;;
14858;SDS011;7521;51.700;6.874;2023-07-13T18:35:59;2.87;;;1.70;;
14858;SDS011;7521;51.700;6.874;2023-07-13T18:39:05;2.77;;;1.50;;
14858;SDS011;7521;51.700;6.874;2023-07-13T18:42:11;6.20;;;1.73;;
14858;SDS011;7521;51.700;6.874;2023-07-13T18:45:16;4.00;;;1.77;;
14858;SDS011;7521;51.700;6.874;2023-07-13T18:48:23;2.13;;;1.50;;
14858;SDS011;7521;51.700;6.874;2023-07-13T18:51:28;4.40;;;2.00;;
14858;SDS011;7521;51.700;6.874;2023-07-13T18:54:34;2.23;;;1.63;;
14858;SDS011;7521;51.700;6.874;2023-07-13T18:57:39;2.47;;;1.83;;
14858;SDS011;7521;51.700;6.874;2023-07-13T19:00:44;3.67;;;1.60;;
14858;SDS011;7521;51.700;6.874;2023-07-13T19:03:49;3.37;;;1.60;;
14858;SDS011;7521;51.700;6.874;2023-07-13T19:06:56;1.87;;;1.47;;
14858;SDS011;7521;51.700;6.874;2023-07-13T19:10:02;2.67;;;1.90;;
14858;SDS011;7521;51.700;6.874;2023-07-13T19:13:07;3.57;;;1.80;;
14858;SDS011;7521;51.700;6.874;2023-07-13T19:16:14;5.47;;;2.30;;
14858;SDS011;7521;51.700;6.874;2023-07-13T19:19:19;5.20;;;2.77;;
14858;SDS011;7521;51.700;6.874;2023-07-13T19:22:25;4.43;;;2.33;;
14858;SDS011;7521;51.700;6.874;2023-07-13T19:25:31;4.03;;;2.17;;
14858;SDS011;7521;51.700;6.874;2023-07-13T19:28:40;4.53;;;2.80;;
14858;SDS011;7521;51.700;6.874;2023-07-13T19:31:46;6.60;;;3.47;;